Time;durP1;ratioP1;P1;durP2;ratioP2;P2;SDS_P1;SDS_P2;PMS_P1;PMS_P2;Temp;Humidity;BMP_temperature;BMP_pressure;BME280_temperature;BME280_humidity;BME280_pressure;Samples;Min_cycle;Max_cycle;Signal;HPM_P1;HPM_P2
2023/07/03 00:00:57;;;;;;;12.70;7.23;;;;;;;22.77;93.65;98896.31;5033128;28;20256;-68
2023/07/03 00:03:27;;;;;;;8.40;7.23;;;;;;;22.71;94.02;98893.94;5033090;28;20197;-68
2023/07/03 00:05:54;;;;;;;7.90;7.10;;;;;;;22.80;94.04;98895.72;5032981;28;20202;-68
2023/07/03 00:08:21;;;;;;;15.60;7.40;;;;;;;22.89;94.36;98880.44;5032726;28;20287;-68
2023/07/03 00:10:48;;;;;;;8.10;7.40;;;;;;;23.04;91.21;98896.50;5033285;28;20190;-68
2023/07/03 00:13:14;;;;;;;12.70;7.83;;;;;;;23.04;91.51;98899.22;5031938;28;20321;-67
2023/07/03 00:15:41;;;;;;;9.97;7.23;;;;;;;23.02;89.77;98901.41;5032501;28;20251;-67
2023/07/03 00:18:08;;;;;;;14.53;7.27;;;;;;;23.02;89.70;98911.41;5032602;28;20603;-69
2023/07/03 00:20:36;;;;;;;7.77;7.07;;;;;;;22.97;89.90;98904.19;5032818;28;20284;-68
2023/07/03 00:23:03;;;;;;;8.33;6.77;;;;;;;22.98;90.96;98911.22;5033003;28;20199;-69
2023/07/03 00:25:30;;;;;;;9.60;7.50;;;;;;;22.94;90.00;98915.59;5032527;28;20389;-69
2023/07/03 00:27:56;;;;;;;8.13;7.00;;;;;;;22.92;90.66;98906.97;5032575;28;20201;-68
2023/07/03 00:30:23;;;;;;;9.73;6.53;;;;;;;22.92;90.37;98917.78;5032415;28;20202;-69
2023/07/03 00:32:50;;;;;;;11.07;7.93;;;;;;;22.93;92.82;98916.69;5032876;28;20685;-68
2023/07/03 00:35:16;;;;;;;11.90;7.53;;;;;;;22.97;90.09;98915.03;5031674;28;20195;-68
2023/07/03 00:37:44;;;;;;;7.83;7.03;;;;;;;23.11;88.95;98909.69;5032391;28;20620;-68
2023/07/03 00:40:13;;;;;;;8.87;7.67;;;;;;;23.13;89.23;98911.03;5032288;28;20248;-68
2023/07/03 00:42:40;;;;;;;10.07;7.47;;;;;;;23.17;89.60;98909.34;5031921;28;20214;-68
2023/07/03 00:45:09;;;;;;;9.70;7.13;;;;;;;23.13;88.21;98905.59;5031587;28;20198;-68
2023/07/03 00:47:37;;;;;;;8.53;7.70;;;;;;;23.24;87.76;98920.63;5032145;28;20578;-68
2023/07/03 00:50:04;;;;;;;7.87;6.87;;;;;;;23.25;87.69;98916.03;5032395;28;20201;-69
2023/07/03 00:52:31;;;;;;;7.33;6.80;;;;;;;23.28;88.03;98916.25;5032377;28;20226;-69
2023/07/03 00:54:59;;;;;;;11.63;6.93;;;;;;;23.28;87.92;98916.25;5032432;28;20194;-69
2023/07/03 00:57:26;;;;;;;12.50;7.27;;;;;;;23.38;87.82;98915.31;5031516;28;20220;-69
2023/07/03 00:59:53;;;;;;;9.50;7.20;;;;;;;23.46;86.88;98920.88;5031950;28;20207;-69
2023/07/03 01:02:25;;;;;;;8.93;7.50;;;;;;;23.51;86.10;98920.81;5032462;28;20659;-69
2023/07/03 01:04:56;;;;;;;8.97;7.20;;;;;;;23.46;85.79;98917.34;5032416;28;20271;-69
2023/07/03 01:07:27;;;;;;;7.07;6.53;;;;;;;23.44;86.70;98925.00;5032331;28;20195;-69
2023/07/03 01:09:58;;;;;;;8.13;7.03;;;;;;;23.39;86.02;98927.75;5032350;28;20239;-68
2023/07/03 01:12:30;;;;;;;7.07;6.57;;;;;;;23.31;86.39;98920.28;5032127;28;20276;-69
2023/07/03 01:15:02;;;;;;;7.60;6.67;;;;;;;23.30;86.51;98919.50;5031781;28;20183;-69
2023/07/03 01:17:30;;;;;;;8.17;7.07;;;;;;;23.32;87.03;98917.28;5031830;28;20190;-68
2023/07/03 01:19:58;;;;;;;7.03;6.33;;;;;;;23.27;87.09;98919.28;5031218;28;20257;-69
2023/07/03 01:22:28;;;;;;;9.23;6.90;;;;;;;23.27;88.10;98913.84;5031768;28;20566;-69
2023/07/03 01:25:00;;;;;;;7.80;7.10;;;;;;;23.28;86.41;98921.66;5031730;28;20181;-69
2023/07/03 01:27:31;;;;;;;7.87;7.07;;;;;;;23.28;86.72;98924.38;5031861;28;20187;-69
2023/07/03 01:29:59;;;;;;;8.57;7.17;;;;;;;23.22;86.41;98917.44;5032479;28;20271;-68
2023/07/03 01:32:30;;;;;;;8.47;7.37;;;;;;;23.10;85.66;98919.72;5035715;28;20755;-69
2023/07/03 01:34:58;;;;;;;8.43;7.57;;;;;;;22.95;85.34;98922.63;5035443;28;20281;-69
2023/07/03 01:37:27;;;;;;;9.40;7.03;;;;;;;22.74;85.97;98926.66;5034740;28;20202;-69
2023/07/03 01:39:57;;;;;;;7.83;7.17;;;;;;;22.60;87.74;98914.09;5035971;28;20194;-69
2023/07/03 01:42:25;;;;;;;7.40;6.77;;;;;;;22.45;88.76;98912.34;5035937;28;20205;-69
2023/07/03 01:44:52;;;;;;;10.47;6.97;;;;;;;22.34;88.84;98926.25;5035599;28;20193;-68
2023/07/03 01:47:20;;;;;;;8.23;7.13;;;;;;;22.21;90.62;98921.53;5035801;28;20250;-68
2023/07/03 01:49:47;;;;;;;7.93;7.17;;;;;;;22.26;89.25;98929.59;5035715;28;20198;-68
2023/07/03 01:52:19;;;;;;;7.77;6.77;;;;;;;22.29;89.75;98929.81;5035470;28;20661;-68
2023/07/03 01:54:51;;;;;;;7.47;6.93;;;;;;;22.26;88.78;98935.00;5034867;28;20189;-68
2023/07/03 01:57:28;;;;;;;7.93;7.23;;;;;;;22.27;88.85;98932.00;5035428;28;20193;-69
2023/07/03 01:59:58;;;;;;;7.83;7.23;;;;;;;22.30;90.65;98936.84;5035762;28;20239;-68
2023/07/03 02:02:29;;;;;;;8.07;7.47;;;;;;;22.36;89.68;98935.72;5035175;28;20209;-68
2023/07/03 02:05:03;;;;;;;9.30;7.23;;;;;;;22.41;90.17;98935.66;5035191;28;20185;-69
2023/07/03 02:07:31;;;;;;;8.50;7.83;;;;;;;22.50;88.03;98935.88;5035634;28;20190;-69
2023/07/03 02:09:58;;;;;;;9.10;6.83;;;;;;;22.45;87.87;98931.28;5035417;28;20248;-69
2023/07/03 02:12:26;;;;;;;11.63;7.77;;;;;;;22.38;88.30;98943.53;5035348;28;20251;-69
2023/07/03 02:14:53;;;;;;;8.90;8.13;;;;;;;22.38;89.00;98935.44;5035312;28;20189;-69
2023/07/03 02:17:20;;;;;;;8.77;8.03;;;;;;;22.42;87.76;98945.38;5034151;28;20583;-69
2023/07/03 02:19:47;;;;;;;8.70;7.90;;;;;;;22.46;88.05;98946.44;5035197;28;20251;-69
2023/07/03 02:22:14;;;;;;;7.87;7.07;;;;;;;22.52;87.80;98945.31;5035601;28;20236;-69
2023/07/03 02:24:41;;;;;;;9.07;8.27;;;;;;;22.56;86.76;98957.19;5034780;28;20193;-69
2023/07/03 02:27:07;;;;;;;8.63;7.90;;;;;;;22.46;86.96;98956.47;5034856;28;20193;-69
2023/07/03 02:29:35;;;;;;;9.10;8.37;;;;;;;22.43;87.42;98952.44;5035003;28;20227;-70
2023/07/03 02:32:02;;;;;;;9.07;8.30;;;;;;;22.51;88.30;98956.44;5034761;28;20291;-67
2023/07/03 02:34:29;;;;;;;9.17;8.40;;;;;;;22.57;88.52;98944.44;5034997;28;20648;-67
2023/07/03 02:36:58;;;;;;;9.40;8.50;;;;;;;22.65;87.39;98960.06;5034971;28;20288;-67
2023/07/03 02:39:25;;;;;;;10.23;8.73;;;;;;;22.76;88.32;98959.69;5033279;28;20201;-68
2023/07/03 02:41:52;;;;;;;8.40;7.57;;;;;;;22.82;86.55;98966.66;5034347;28;20259;-68
2023/07/03 02:44:18;;;;;;;9.13;8.17;;;;;;;22.90;86.28;98973.34;5033441;28;20276;-68
2023/07/03 02:46:47;;;;;;;10.43;8.73;;;;;;;22.94;87.01;98974.38;5014830;28;20199;-68
2023/07/03 02:49:13;;;;;;;9.30;8.50;;;;;;;22.96;86.48;98988.44;5014592;28;20832;-68
2023/07/03 02:51:40;;;;;;;8.50;7.67;;;;;;;22.99;86.69;98983.25;5014744;28;20253;-67
2023/07/03 02:54:07;;;;;;;9.97;8.93;;;;;;;23.02;86.10;98976.44;5014915;28;20258;-68
2023/07/03 02:56:33;;;;;;;9.87;8.30;;;;;;;23.06;85.32;98978.28;5014427;28;20740;-68
2023/07/03 02:59:00;;;;;;;9.40;8.50;;;;;;;23.13;85.07;98973.34;5014450;28;20737;-68
2023/07/03 03:01:27;;;;;;;11.37;8.13;;;;;;;23.23;85.46;98983.28;5032277;28;20193;-68
2023/07/03 03:03:58;;;;;;;8.63;7.93;;;;;;;23.42;84.05;98976.78;5034487;28;20205;-68
2023/07/03 03:06:25;;;;;;;9.97;7.83;;;;;;;23.54;81.66;98979.88;5034320;28;20220;-68
2023/07/03 03:08:51;;;;;;;10.97;8.03;;;;;;;23.57;80.43;98984.69;5034025;28;20662;-69
2023/07/03 03:11:18;;;;;;;8.13;7.30;;;;;;;23.52;82.27;98984.00;5033338;28;20239;-68
2023/07/03 03:13:45;;;;;;;11.43;7.23;;;;;;;23.64;79.99;98996.00;5033939;28;20765;-69
2023/07/03 03:16:11;;;;;;;8.53;7.70;;;;;;;23.52;79.39;99003.75;5033834;28;20608;-69
2023/07/03 03:18:38;;;;;;;10.17;8.70;;;;;;;23.30;80.65;98991.84;5034203;28;20261;-69
2023/07/03 03:21:06;;;;;;;8.83;8.13;;;;;;;23.10;81.36;98995.59;5034093;28;20195;-69
2023/07/03 03:23:33;;;;;;;8.90;7.83;;;;;;;23.22;82.36;98993.31;5033815;28;20248;-69
2023/07/03 03:25:59;;;;;;;11.67;8.13;;;;;;;23.35;82.74;98995.31;5032993;28;20624;-69
2023/07/03 03:28:26;;;;;;;9.00;8.20;;;;;;;23.52;80.27;98995.63;5034058;28;20249;-69
2023/07/03 03:30:53;;;;;;;8.57;7.93;;;;;;;23.57;80.34;99000.19;5033704;28;20262;-69
2023/07/03 03:33:19;;;;;;;10.47;8.23;;;;;;;23.51;80.37;98996.72;5033152;28;20281;-69
2023/07/03 03:35:47;;;;;;;9.50;8.47;;;;;;;23.65;80.31;98997.59;5033698;28;20256;-69
2023/07/03 03:38:15;;;;;;;12.87;8.27;;;;;;;23.71;79.39;99010.00;5033410;28;20196;-69
2023/07/03 03:40:44;;;;;;;10.00;7.97;;;;;;;23.47;80.75;99009.25;5033596;28;20194;-68
2023/07/03 03:43:11;;;;;;;9.33;7.80;;;;;;;23.64;79.66;99016.91;5032724;28;20195;-69
2023/07/03 03:45:37;;;;;;;14.07;8.37;;;;;;;23.52;79.66;99021.94;5033082;28;20744;-68
2023/07/03 03:48:04;;;;;;;8.83;8.13;;;;;;;23.68;79.33;99010.59;5033536;28;20277;-69
2023/07/03 03:50:32;;;;;;;11.47;8.47;;;;;;;23.92;78.53;99022.22;5033454;28;20199;-69
2023/07/03 03:52:58;;;;;;;9.77;8.17;;;;;;;24.00;77.37;99026.97;5032476;28;20231;-69
2023/07/03 03:55:27;;;;;;;10.87;8.83;;;;;;;23.77;78.22;99022.38;5033323;28;20207;-69
2023/07/03 03:57:54;;;;;;;12.37;9.60;;;;;;;23.68;79.06;99026.06;5033281;28;20196;-69
2023/07/03 04:00:21;;;;;;;12.50;8.30;;;;;;;23.37;79.40;99009.41;5033254;28;20199;-68
2023/07/03 04:02:48;;;;;;;11.10;8.20;;;;;;;23.44;79.90;99026.09;5032835;28;20671;-69
2023/07/03 04:05:15;;;;;;;10.33;9.27;;;;;;;23.52;80.01;99028.16;5031641;28;20195;-68
2023/07/03 04:07:41;;;;;;;11.07;9.30;;;;;;;24.09;77.99;99030.63;5032301;28;20250;-69
2023/07/03 04:10:09;;;;;;;12.97;9.47;;;;;;;24.80;74.93;99036.50;5032297;28;20687;-70
2023/07/03 04:12:37;;;;;;;13.07;9.60;;;;;;;25.57;72.47;99050.28;5032115;28;20274;-70
2023/07/03 04:15:04;;;;;;;10.30;8.43;;;;;;;26.27;68.99;99055.00;5032104;28;20197;-69
2023/07/03 04:17:31;;;;;;;14.23;10.23;;;;;;;26.51;67.75;99051.97;5032156;28;20189;-69
2023/07/03 04:19:58;;;;;;;11.83;9.63;;;;;;;26.86;65.84;99059.28;5032137;28;20188;-69
2023/07/03 04:22:26;;;;;;;10.17;9.33;;;;;;;26.96;65.18;99050.81;5032196;28;20193;-69
2023/07/03 04:24:53;;;;;;;10.13;9.13;;;;;;;27.51;63.77;99054.75;5032063;28;20553;-68
2023/07/03 04:27:19;;;;;;;10.40;9.40;;;;;;;27.97;62.56;99060.50;5031131;28;20189;-69
2023/07/03 04:29:47;;;;;;;10.70;9.70;;;;;;;28.15;61.64;99067.59;5031795;28;20328;-68
2023/07/03 04:32:14;;;;;;;12.87;9.70;;;;;;;28.33;60.39;99064.53;5031450;28;20778;-69
2023/07/03 04:34:41;;;;;;;11.37;10.27;;;;;;;28.74;59.38;99066.75;5032139;28;20259;-70
2023/07/03 04:37:08;;;;;;;12.87;10.07;;;;;;;28.89;58.56;99061.59;5032130;28;20251;-69
2023/07/03 04:39:35;;;;;;;10.40;9.50;;;;;;;29.07;57.79;99073.28;5032580;28;20197;-68
2023/07/03 04:42:02;;;;;;;10.27;9.43;;;;;;;29.07;57.67;99078.75;5032105;28;20193;-68
2023/07/03 04:44:29;;;;;;;12.37;9.77;;;;;;;29.34;56.51;99078.34;5032132;28;20200;-70
2023/07/03 04:46:57;;;;;;;11.27;10.27;;;;;;;29.73;55.90;99089.00;5032270;28;20197;-69
2023/07/03 04:49:26;;;;;;;11.53;10.07;;;;;;;29.87;54.58;99081.31;5031416;28;20299;-69
2023/07/03 04:51:54;;;;;;;11.67;10.50;;;;;;;30.33;53.69;99099.56;5012230;28;20201;-68
2023/07/03 04:54:21;;;;;;;19.63;12.07;;;;;;;30.59;53.03;99098.22;5012491;28;20221;-69
2023/07/03 04:56:48;;;;;;;16.00;10.27;;;;;;;30.49;52.33;99104.09;5012544;28;20200;-68
2023/07/03 04:59:16;;;;;;;12.30;11.10;;;;;;;30.98;51.37;99100.44;5012272;28;20575;-70
2023/07/03 05:01:43;;;;;;;10.77;10.07;;;;;;;30.94;51.41;99093.22;5012084;28;20194;-64
2023/07/03 05:04:11;;;;;;;14.80;10.60;;;;;;;31.01;50.13;99091.53;5011952;28;20200;-63
2023/07/03 05:06:39;;;;;;;11.03;10.03;;;;;;;31.28;51.09;99095.63;5012157;28;20194;-63
2023/07/03 05:09:06;;;;;;;11.13;10.07;;;;;;;30.84;50.76;99091.72;5012342;28;20275;-64
2023/07/03 05:11:34;;;;;;;17.50;11.50;;;;;;;31.23;50.57;99091.13;5013752;28;20194;-65
2023/07/03 05:14:01;;;;;;;12.70;11.03;;;;;;;31.50;49.71;99101.47;5030884;28;20708;-66
2023/07/03 05:16:28;;;;;;;13.97;11.33;;;;;;;31.36;50.06;99094.72;5031584;28;20278;-65
2023/07/03 05:18:55;;;;;;;25.57;11.77;;;;;;;31.84;49.95;99090.03;5031484;28;20275;-63
2023/07/03 05:21:23;;;;;;;29.23;12.47;;;;;;;32.27;47.09;99081.97;5031310;28;20197;-63
2023/07/03 05:23:49;;;;;;;13.00;11.80;;;;;;;32.45;46.74;99099.78;5031819;28;20255;-63
2023/07/03 05:26:16;;;;;;;13.03;11.77;;;;;;;32.60;46.94;99093.56;5030404;28;20259;-64
2023/07/03 05:28:43;;;;;;;12.30;11.20;;;;;;;32.36;46.24;99096.38;5030004;28;20243;-63
2023/07/03 05:31:10;;;;;;;12.97;11.40;;;;;;;32.61;46.69;99100.66;5031787;28;20275;-70
2023/07/03 05:33:36;;;;;;;19.37;12.43;;;;;;;32.85;45.73;99097.00;5031481;28;20298;-71
2023/07/03 05:36:04;;;;;;;12.50;11.50;;;;;;;32.74;46.02;99101.38;5031782;28;20202;-76
2023/07/03 05:38:33;;;;;;;12.83;11.50;;;;;;;32.59;44.93;99099.41;5031309;28;20193;-72
2023/07/03 05:41:00;;;;;;;13.43;12.13;;;;;;;32.08;47.65;99092.75;5031854;28;20192;-72
2023/07/03 05:43:27;;;;;;;15.10;11.57;;;;;;;32.22;45.70;99095.91;5031294;28;20193;-72
2023/07/03 05:45:54;;;;;;;14.37;13.07;;;;;;;32.00;46.20;99093.69;5031766;28;20193;-71
2023/07/03 05:48:20;;;;;;;13.63;12.57;;;;;;;31.46;48.22;99095.06;5030854;28;20205;-71
2023/07/03 05:50:47;;;;;;;14.23;13.00;;;;;;;31.84;47.57;99090.03;5030381;28;20189;-71
2023/07/03 05:53:14;;;;;;;14.23;12.83;;;;;;;32.23;46.60;99086.53;5031533;28;20302;-72
2023/07/03 05:55:43;;;;;;;18.20;13.43;;;;;;;32.30;45.78;99097.75;5031665;28;20194;-72
2023/07/03 05:58:11;;;;;;;39.07;14.00;;;;;;;32.00;46.33;99090.94;5031556;28;20201;-72
2023/07/03 06:00:38;;;;;;;13.77;12.67;;;;;;;31.44;47.39;99091.06;5031471;28;20193;-72
2023/07/03 06:03:04;;;;;;;14.03;12.83;;;;;;;30.98;49.65;99099.63;5031106;28;20201;-71
2023/07/03 06:05:32;;;;;;;13.77;12.67;;;;;;;31.20;49.35;99102.75;5030391;28;20753;-71
2023/07/03 06:07:59;;;;;;;14.97;13.53;;;;;;;31.31;48.21;99094.94;5030510;28;20673;-71
2023/07/03 06:10:27;;;;;;;13.97;12.73;;;;;;;31.65;48.13;99100.78;5030838;28;20201;-72
2023/07/03 06:12:55;;;;;;;13.43;12.23;;;;;;;31.92;47.94;99096.56;5030715;28;20705;-71
2023/07/03 06:15:22;;;;;;;14.27;12.97;;;;;;;32.09;47.18;99101.81;5030691;28;20190;-71
2023/07/03 06:17:48;;;;;;;14.17;12.80;;;;;;;32.26;45.84;99102.31;5034466;28;20613;-68
2023/07/03 06:20:15;;;;;;;13.33;12.20;;;;;;;32.30;46.19;99102.47;5033993;28;20716;-69
2023/07/03 06:22:43;;;;;;;14.10;13.07;;;;;;;31.95;46.79;99099.44;5034321;28;20255;-69
2023/07/03 06:25:10;;;;;;;15.67;13.83;;;;;;;31.54;47.25;99096.91;5033736;28;20193;-68
2023/07/03 06:27:37;;;;;;;15.77;14.37;;;;;;;31.02;48.83;99084.91;5034179;28;20251;-68
2023/07/03 06:30:07;;;;;;;17.50;16.00;;;;;;;31.21;48.64;99098.09;5034432;28;20198;-69
2023/07/03 06:32:33;;;;;;;19.03;15.53;;;;;;;31.28;47.92;99099.13;5033915;28;20291;-69
2023/07/03 06:35:00;;;;;;;15.83;14.27;;;;;;;31.50;47.93;99109.72;5033526;28;20666;-69
2023/07/03 06:37:27;;;;;;;14.97;13.60;;;;;;;31.60;48.03;99109.25;5034268;28;20196;-69
2023/07/03 06:39:53;;;;;;;17.43;14.10;;;;;;;31.43;48.43;99105.91;5033882;28;20227;-68
2023/07/03 06:42:20;;;;;;;20.37;14.10;;;;;;;31.50;48.24;99112.47;5034286;28;20193;-67
2023/07/03 06:44:47;;;;;;;14.73;13.53;;;;;;;31.23;48.57;99106.81;5033712;28;20255;-68
2023/07/03 06:47:15;;;;;;;16.47;14.97;;;;;;;31.14;48.79;99115.09;5033513;28;20681;-69
2023/07/03 06:49:41;;;;;;;16.33;14.80;;;;;;;31.15;49.24;99111.22;5034148;28;20193;-68
2023/07/03 06:52:09;;;;;;;27.57;16.17;;;;;;;31.21;49.14;99109.88;5033513;28;20249;-68
2023/07/03 06:54:36;;;;;;;15.20;14.00;;;;;;;31.25;48.00;99110.81;5033693;28;20295;-68
2023/07/03 06:57:03;;;;;;;15.07;13.57;;;;;;;31.05;49.50;99111.66;5033705;28;20201;-70
2023/07/03 06:59:29;;;;;;;19.80;14.50;;;;;;;31.38;49.39;99109.69;5033825;28;20193;-68
2023/07/03 07:01:56;;;;;;;21.20;15.00;;;;;;;31.77;47.68;99113.75;5033893;28;20193;-69
2023/07/03 07:04:27;;;;;;;18.93;16.73;;;;;;;32.00;47.45;99115.69;5032980;28;20251;-69
2023/07/03 07:06:54;;;;;;;16.03;14.43;;;;;;;31.96;47.67;99112.00;5033474;28;20182;-69
2023/07/03 07:09:20;;;;;;;20.27;13.37;;;;;;;32.16;48.11;99105.56;5033310;28;20634;-69
2023/07/03 07:11:47;;;;;;;17.90;14.83;;;;;;;32.27;46.41;99109.44;5033910;28;20244;-69
2023/07/03 07:14:14;;;;;;;15.80;14.37;;;;;;;32.68;45.61;99120.13;5033239;28;20254;-69
2023/07/03 07:16:42;;;;;;;14.70;13.30;;;;;;;33.03;45.01;99121.13;5033445;28;20200;-69
2023/07/03 07:19:11;;;;;;;14.50;13.07;;;;;;;33.13;43.47;99119.81;5033054;28;20247;-68
2023/07/03 07:21:41;;;;;;;16.53;12.90;;;;;;;32.99;45.23;99111.97;5033631;28;20194;-68
2023/07/03 07:24:16;;;;;;;24.40;15.37;;;;;;;32.59;45.24;99122.19;5032983;28;20201;-68
2023/07/03 07:26:43;;;;;;;17.30;14.20;;;;;;;32.33;46.63;99115.50;5032459;28;20271;-68
2023/07/03 07:29:10;;;;;;;14.57;13.47;;;;;;;32.73;44.85;99117.09;5033194;28;20665;-67
2023/07/03 07:31:37;;;;;;;14.90;13.80;;;;;;;32.73;45.18;99117.09;5031095;28;20228;-68
2023/07/03 07:34:05;;;;;;;15.27;12.87;;;;;;;32.85;44.89;99108.84;5032310;28;20213;-74
2023/07/03 07:36:32;;;;;;;15.60;13.07;;;;;;;32.93;43.70;99121.63;5032026;28;20860;-73
2023/07/03 07:39:02;;;;;;;17.87;13.20;;;;;;;32.87;44.49;99109.28;5032865;28;20197;-72
2023/07/03 07:41:29;;;;;;;25.80;15.53;;;;;;;33.30;43.49;99112.00;5032829;28;20194;-73
2023/07/03 07:43:58;;;;;;;15.30;13.57;;;;;;;33.81;43.43;99128.66;5032692;28;20739;-73
2023/07/03 07:46:28;;;;;;;16.98;12.77;;;;;;;33.89;41.02;99133.19;5031465;28;20767;-75
2023/07/03 07:48:56;;;;;;;17.08;15.35;;;;;;;33.89;42.06;99119.41;5032881;28;20193;-74
2023/07/03 07:51:22;;;;;;;14.77;13.48;;;;;;;33.33;43.20;99117.97;5031140;28;20547;-74
2023/07/03 07:53:49;;;;;;;15.27;14.00;;;;;;;33.66;43.54;99115.66;5031661;28;20283;-74
2023/07/03 07:56:17;;;;;;;15.48;14.13;;;;;;;33.32;43.26;99124.66;5015008;28;20676;-75
2023/07/03 07:58:44;;;;;;;20.37;15.50;;;;;;;32.85;45.58;99122.59;5032760;28;20193;-73
2023/07/03 08:01:14;;;;;;;14.67;13.57;;;;;;;33.11;43.64;99120.16;5029893;28;20738;-76
2023/07/03 08:03:41;;;;;;;16.77;14.33;;;;;;;32.77;44.86;99126.25;5032655;28;20201;-77
2023/07/03 08:06:09;;;;;;;14.35;13.02;;;;;;;32.85;43.93;99119.84;5027192;28;20256;-75
2023/07/03 08:08:37;;;;;;;13.37;12.43;;;;;;;33.48;43.49;99120.75;5041018;28;20193;-72
2023/07/03 08:11:05;;;;;;;13.73;12.80;;;;;;;33.99;42.37;99125.19;5032734;28;20701;-73
2023/07/03 08:13:35;;;;;;;18.13;14.57;;;;;;;33.75;42.07;99125.34;5031750;28;20323;-71
2023/07/03 08:16:02;;;;;;;16.00;12.38;;;;;;;33.70;43.46;99127.56;5031826;28;20218;-71
2023/07/03 08:18:29;;;;;;;15.35;14.35;;;;;;;33.67;41.59;99133.81;5032019;28;20588;-70
2023/07/03 08:20:56;;;;;;;14.60;13.40;;;;;;;33.55;43.12;99125.66;5031430;28;20562;-72
2023/07/03 08:23:23;;;;;;;14.57;13.43;;;;;;;33.62;41.86;99131.31;5031362;28;20189;-70
2023/07/03 08:25:50;;;;;;;16.35;13.57;;;;;;;33.94;42.06;99132.91;5032256;28;20220;-70
2023/07/03 08:28:17;;;;;;;17.50;13.65;;;;;;;34.08;42.37;99134.03;5031330;28;20699;-71
2023/07/03 08:30:45;;;;;;;15.05;13.65;;;;;;;33.22;42.70;99137.75;5031459;28;20256;-71
2023/07/03 08:33:12;;;;;;;14.30;13.30;;;;;;;33.20;42.41;99137.31;4992045;28;20210;-70
2023/07/03 08:35:39;;;;;;;13.70;12.80;;;;;;;33.37;42.81;99129.88;4992202;28;20241;-69
2023/07/03 08:38:07;;;;;;;19.90;13.50;;;;;;;33.49;42.48;99135.31;4992297;28;20191;-70
2023/07/03 08:40:34;;;;;;;13.75;12.45;;;;;;;33.57;42.28;99139.84;4992211;28;20248;-69
2023/07/03 08:43:01;;;;;;;14.38;13.05;;;;;;;33.71;42.46;99129.97;4992487;28;20190;-69
2023/07/03 08:45:38;;;;;;;14.57;13.43;;;;;;;33.44;41.79;99135.59;4991917;28;20761;-68
2023/07/03 08:48:11;;;;;;;14.35;13.32;;;;;;;33.48;43.18;99136.47;4991989;28;20202;-69
2023/07/03 08:50:39;;;;;;;14.82;13.73;;;;;;;33.19;41.86;99129.38;4987003;28;20204;-70
2023/07/03 08:53:10;;;;;;;13.93;12.82;;;;;;;33.54;42.96;99113.81;4990136;28;20261;-69
2023/07/03 08:55:42;;;;;;;14.32;13.05;;;;;;;33.80;42.33;99118.78;4989621;28;20277;-70
2023/07/03 08:58:09;;;;;;;14.75;13.27;;;;;;;33.78;42.46;99126.59;4989437;28;20202;-73
2023/07/03 09:00:43;;;;;;;14.70;13.30;;;;;;;33.91;41.42;99133.63;4989900;28;20639;-71
2023/07/03 09:03:21;;;;;;;13.68;12.55;;;;;;;33.81;41.90;99129.44;4989868;28;20258;-70
2023/07/03 09:06:00;;;;;;;12.10;11.25;;;;;;;34.00;38.82;99126.00;4986003;28;20197;-69
2023/07/03 09:08:34;;;;;;;17.27;12.63;;;;;;;33.69;40.24;99126.00;4991578;28;20667;-72
2023/07/03 09:11:02;;;;;;;12.52;11.82;;;;;;;33.81;40.71;99123.94;4988948;28;20194;-68
2023/07/03 09:13:33;;;;;;;11.95;11.07;;;;;;;33.93;39.39;99120.31;4988271;28;20271;-69
2023/07/03 09:16:05;;;;;;;32.50;13.45;;;;;;;33.84;39.33;99125.22;4990141;28;20280;-68
2023/07/03 09:18:39;;;;;;;51.53;16.05;;;;;;;33.73;40.31;99118.59;4989395;28;20618;-71
2023/07/03 09:21:05;;;;;;;12.77;11.77;;;;;;;34.09;39.85;99107.28;4990258;28;20191;-72
2023/07/03 09:23:38;;;;;;;11.70;10.80;;;;;;;34.21;38.11;99123.72;4989077;28;20203;-77
2023/07/03 09:26:09;;;;;;;11.07;10.10;;;;;;;34.10;37.77;99117.16;4990195;28;20265;-73
2023/07/03 09:28:40;;;;;;;12.68;9.80;;;;;;;33.86;38.86;99120.13;4983911;28;20288;-73
2023/07/03 09:31:07;;;;;;;11.02;10.05;;;;;;;34.11;38.89;99108.53;4995155;28;20279;-72
2023/07/03 09:33:35;;;;;;;10.98;9.85;;;;;;;34.38;36.72;99115.84;5029022;28;20235;-72
2023/07/03 09:36:04;;;;;;;43.53;11.40;;;;;;;34.32;36.06;99116.47;5028601;28;20247;-72
2023/07/03 09:38:31;;;;;;;17.10;10.32;;;;;;;34.21;36.66;99116.22;5029602;28;20197;-73
2023/07/03 09:41:04;;;;;;;10.82;9.85;;;;;;;34.34;36.74;99114.97;5027856;28;20308;-74
2023/07/03 09:43:32;;;;;;;11.57;10.63;;;;;;;34.49;36.80;99113.31;5028970;28;20285;-73
2023/07/03 09:46:10;;;;;;;10.25;9.48;;;;;;;34.45;34.12;99110.47;5028839;28;20189;-75
2023/07/03 09:48:38;;;;;;;12.02;9.85;;;;;;;34.78;36.34;99109.97;5025466;28;20201;-75
2023/07/03 09:51:06;;;;;;;11.70;10.63;;;;;;;35.06;35.57;99103.03;5029528;28;20255;-73
2023/07/03 09:53:33;;;;;;;10.18;9.52;;;;;;;35.02;35.61;99115.22;5032517;28;20199;-73
2023/07/03 09:56:02;;;;;;;10.48;9.82;;;;;;;34.75;35.59;99102.41;5032188;28;20252;-72
2023/07/03 09:58:30;;;;;;;23.05;10.85;;;;;;;34.89;35.94;99108.22;5025676;28;20201;-72
2023/07/03 10:00:59;;;;;;;9.80;9.25;;;;;;;35.15;33.95;99109.13;5032271;28;20267;-72
2023/07/03 10:03:28;;;;;;;12.02;10.35;;;;;;;35.31;34.70;99107.06;5032599;28;20688;-71
2023/07/03 10:05:58;;;;;;;9.82;8.93;;;;;;;35.06;33.57;99107.75;5032906;28;20193;-73
2023/07/03 10:08:28;;;;;;;11.35;9.50;;;;;;;35.03;35.98;99103.00;5029698;28;20658;-73
2023/07/03 10:10:57;;;;;;;10.18;9.55;;;;;;;34.98;35.08;99100.53;5033330;28;20221;-70
2023/07/03 10:13:28;;;;;;;9.75;9.15;;;;;;;35.02;35.66;99106.94;5031502;28;20193;-71
2023/07/03 10:15:55;;;;;;;9.98;9.02;;;;;;;35.12;34.11;99103.53;5033397;28;20205;-72
2023/07/03 10:18:27;;;;;;;9.40;8.73;;;;;;;35.33;33.37;99093.72;5025547;28;20219;-73
2023/07/03 10:20:56;;;;;;;9.27;8.63;;;;;;;35.44;32.11;99102.97;5031618;28;20284;-73
2023/07/03 10:23:27;;;;;;;8.68;8.07;;;;;;;35.53;33.36;99088.91;5031622;28;20267;-73
2023/07/03 10:26:04;;;;;;;9.15;8.65;;;;;;;35.75;31.68;99097.19;5033849;28;20208;-72
2023/07/03 10:28:36;;;;;;;9.27;8.57;;;;;;;35.30;32.04;99085.34;5031031;28;20235;-74
2023/07/03 10:31:06;;;;;;;9.70;8.77;;;;;;;35.50;33.07;99087.69;5032529;28;20193;-75
2023/07/03 10:33:37;;;;;;;9.40;8.73;;;;;;;35.35;33.33;99087.81;5032413;28;20204;-72
2023/07/03 10:36:11;;;;;;;10.32;9.30;;;;;;;35.47;33.81;99084.84;5032554;28;20201;-73
2023/07/03 10:38:43;;;;;;;9.50;8.82;;;;;;;35.16;33.91;99085.06;5032168;28;20891;-72
2023/07/03 10:41:17;;;;;;;9.07;8.52;;;;;;;34.92;32.87;99083.47;5032785;28;20185;-74
2023/07/03 10:43:47;;;;;;;10.10;9.18;;;;;;;34.98;33.80;99083.97;5032103;28;20251;-73
2023/07/03 10:46:33;;;;;;;9.07;8.48;;;;;;;34.77;33.74;99080.75;5024651;28;20259;-74
2023/07/03 10:49:06;;;;;;;8.27;7.88;;;;;;;34.54;32.01;99074.41;5032828;28;20259;-71
2023/07/03 10:51:40;;;;;;;8.60;8.13;;;;;;;34.35;32.22;99066.91;5031677;28;20255;-73
2023/07/03 10:54:14;;;;;;;8.48;7.70;;;;;;;34.24;33.13;99071.38;5030821;28;20193;-72
2023/07/03 10:56:45;;;;;;;9.30;8.60;;;;;;;34.35;34.20;99063.34;5029907;28;20205;-70
2023/07/03 10:59:19;;;;;;;8.77;8.23;;;;;;;34.07;35.49;99059.97;5027706;28;20243;-71
2023/07/03 11:01:56;;;;;;;9.23;8.60;;;;;;;34.20;34.66;99066.94;5032157;28;20197;-71
2023/07/03 11:04:30;;;;;;;10.00;9.02;;;;;;;34.47;33.84;99065.97;5031815;28;20197;-71
2023/07/03 11:07:07;;;;;;;8.95;8.10;;;;;;;34.69;34.95;99059.69;5033884;28;20197;-72
2023/07/03 11:09:44;;;;;;;9.32;8.65;;;;;;;34.62;34.54;99054.06;5032736;28;20649;-70
2023/07/03 11:12:17;;;;;;;8.00;7.60;;;;;;;34.41;33.62;99054.41;5017067;28;20185;-70
2023/07/03 11:14:51;;;;;;;29.15;9.57;;;;;;;34.57;34.03;99057.13;5034419;28;20263;-71
2023/07/03 11:17:28;;;;;;;9.00;8.10;;;;;;;34.62;31.30;99059.56;5033839;28;20181;-72
2023/07/03 11:20:05;;;;;;;8.80;8.10;;;;;;;34.60;31.93;99056.38;5034537;28;20264;-70
2023/07/03 11:22:42;;;;;;;8.68;8.18;;;;;;;34.46;32.36;99050.59;5034051;28;20189;-71
2023/07/03 11:25:19;;;;;;;8.45;7.68;;;;;;;34.43;32.63;99052.09;5034117;28;20199;-71
2023/07/03 11:27:56;;;;;;;9.45;8.80;;;;;;;34.60;33.02;99050.84;5033679;28;20185;-70
2023/07/03 11:30:25;;;;;;;9.43;8.57;;;;;;;34.66;32.72;99049.41;5033853;28;20247;-70